<?xml version="1.0" encoding="UTF-8" standalone="no" ?>
<gpx xmlns="http://www.topografix.com/GPX/1/1" xmlns:xsi="http://www.w3.org/2001/XMLSchema-instance" xsi:schemaLocation="http://www.topografix.com/GPX/1/1 http://www.topografix.com/GPX/1/1/gpx.xsd" version="1.1" creator="VisuGPX - https://www.visugpx.com">
  <metadata>
    <name>Les Gorges de Thurignin</name>
  </metadata>
  <trk>
    <name><![CDATA[Les Gorges de Thurignin_1]]></name>
    <trkseg>
      <trkpt lat="45.87501" lon="5.68451">
        <ele>246</ele>
        <time>2020-06-02T13:51:31Z</time>
      </trkpt>
      <trkpt lat="45.87482" lon="5.6843">
        <ele>246</ele>
        <time>2020-06-02T13:52:03Z</time>
      </trkpt>
      <trkpt lat="45.87474" lon="5.68421">
        <ele>246</ele>
        <time>2020-06-02T13:52:16Z</time>
      </trkpt>
      <trkpt lat="45.87463" lon="5.68401">
        <ele>246</ele>
        <time>2020-06-02T13:52:40Z</time>
      </trkpt>
      <trkpt lat="45.87454" lon="5.68396">
        <ele>246</ele>
        <time>2020-06-02T13:52:53Z</time>
      </trkpt>
      <trkpt lat="45.87445" lon="5.68402">
        <ele>246</ele>
        <time>2020-06-02T13:53:06Z</time>
      </trkpt>
      <trkpt lat="45.87378" lon="5.68469">
        <ele>246</ele>
        <time>2020-06-02T13:54:55Z</time>
      </trkpt>
      <trkpt lat="45.87372" lon="5.68475">
        <ele>246</ele>
        <time>2020-06-02T13:55:05Z</time>
      </trkpt>
      <trkpt lat="45.8737" lon="5.68491">
        <ele>246</ele>
        <time>2020-06-02T13:55:20Z</time>
      </trkpt>
      <trkpt lat="45.87356" lon="5.68528">
        <ele>246</ele>
        <time>2020-06-02T13:55:59Z</time>
      </trkpt>
      <trkpt lat="45.87329" lon="5.68558">
        <ele>246</ele>
        <time>2020-06-02T13:56:44Z</time>
      </trkpt>
      <trkpt lat="45.87266" lon="5.68608">
        <ele>246</ele>
        <time>2020-06-02T13:58:20Z</time>
      </trkpt>
      <trkpt lat="45.87214" lon="5.68652">
        <ele>248</ele>
        <time>2020-06-02T13:59:41Z</time>
      </trkpt>
      <trkpt lat="45.872" lon="5.68634">
        <ele>250</ele>
        <time>2020-06-02T14:00:06Z</time>
      </trkpt>
      <trkpt lat="45.87156" lon="5.68583">
        <ele>261</ele>
        <time>2020-06-02T14:01:22Z</time>
      </trkpt>
      <trkpt lat="45.87144" lon="5.6861">
        <ele>261</ele>
        <time>2020-06-02T14:01:51Z</time>
      </trkpt>
      <trkpt lat="45.87109" lon="5.68701">
        <ele>260</ele>
        <time>2020-06-02T14:03:28Z</time>
      </trkpt>
      <trkpt lat="45.87085" lon="5.68769">
        <ele>254</ele>
        <time>2020-06-02T14:04:39Z</time>
      </trkpt>
      <trkpt lat="45.87043" lon="5.6881">
        <ele>251</ele>
        <time>2020-06-02T14:05:46Z</time>
      </trkpt>
      <trkpt lat="45.86985" lon="5.68832">
        <ele>249</ele>
        <time>2020-06-02T14:07:07Z</time>
      </trkpt>
      <trkpt lat="45.86925" lon="5.68842">
        <ele>250</ele>
        <time>2020-06-02T14:08:27Z</time>
      </trkpt>
      <trkpt lat="45.869" lon="5.68841">
        <ele>251</ele>
        <time>2020-06-02T14:09:01Z</time>
      </trkpt>
      <trkpt lat="45.86887" lon="5.68842">
        <ele>252</ele>
        <time>2020-06-02T14:09:18Z</time>
      </trkpt>
      <trkpt lat="45.86863" lon="5.6883">
        <ele>254</ele>
        <time>2020-06-02T14:09:52Z</time>
      </trkpt>
      <trkpt lat="45.86775" lon="5.68847">
        <ele>253</ele>
        <time>2020-06-02T14:11:50Z</time>
      </trkpt>
      <trkpt lat="45.86734" lon="5.6885">
        <ele>253</ele>
        <time>2020-06-02T14:12:45Z</time>
      </trkpt>
      <trkpt lat="45.86703" lon="5.68843">
        <ele>254</ele>
        <time>2020-06-02T14:13:27Z</time>
      </trkpt>
      <trkpt lat="45.86664" lon="5.6882">
        <ele>256</ele>
        <time>2020-06-02T14:14:23Z</time>
      </trkpt>
      <trkpt lat="45.86675" lon="5.68783">
        <ele>258</ele>
        <time>2020-06-02T14:15:01Z</time>
      </trkpt>
      <trkpt lat="45.86685" lon="5.68751">
        <ele>260</ele>
        <time>2020-06-02T14:15:33Z</time>
      </trkpt>
      <trkpt lat="45.86681" lon="5.68727">
        <ele>261</ele>
        <time>2020-06-02T14:15:56Z</time>
      </trkpt>
      <trkpt lat="45.86647" lon="5.68593">
        <ele>266</ele>
        <time>2020-06-02T14:18:09Z</time>
      </trkpt>
      <trkpt lat="45.86636" lon="5.68548">
        <ele>269</ele>
        <time>2020-06-02T14:18:53Z</time>
      </trkpt>
      <trkpt lat="45.86618" lon="5.68517">
        <ele>269</ele>
        <time>2020-06-02T14:19:30Z</time>
      </trkpt>
      <trkpt lat="45.86622" lon="5.68483">
        <ele>273</ele>
        <time>2020-06-02T14:20:03Z</time>
      </trkpt>
      <trkpt lat="45.86617" lon="5.68452">
        <ele>274</ele>
        <time>2020-06-02T14:20:32Z</time>
      </trkpt>
      <trkpt lat="45.86612" lon="5.6841">
        <ele>275</ele>
        <time>2020-06-02T14:21:12Z</time>
      </trkpt>
      <trkpt lat="45.86612" lon="5.68368">
        <ele>277</ele>
        <time>2020-06-02T14:21:51Z</time>
      </trkpt>
      <trkpt lat="45.8659" lon="5.68317">
        <ele>276</ele>
        <time>2020-06-02T14:22:46Z</time>
      </trkpt>
      <trkpt lat="45.86615" lon="5.68258">
        <ele>282</ele>
        <time>2020-06-02T14:23:51Z</time>
      </trkpt>
      <trkpt lat="45.86607" lon="5.6822">
        <ele>282</ele>
        <time>2020-06-02T14:24:28Z</time>
      </trkpt>
      <trkpt lat="45.8663" lon="5.68121">
        <ele>289</ele>
        <time>2020-06-02T14:26:05Z</time>
      </trkpt>
      <trkpt lat="45.86631" lon="5.68125">
        <ele>289</ele>
        <time>2020-06-02T14:26:08Z</time>
      </trkpt>
      <trkpt lat="45.86661" lon="5.68113">
        <ele>296</ele>
        <time>2020-06-02T14:26:50Z</time>
      </trkpt>
      <trkpt lat="45.8667" lon="5.68048">
        <ele>298</ele>
        <time>2020-06-02T14:27:52Z</time>
      </trkpt>
      <trkpt lat="45.8666" lon="5.68013">
        <ele>297</ele>
        <time>2020-06-02T14:28:27Z</time>
      </trkpt>
      <trkpt lat="45.86665" lon="5.67979">
        <ele>300</ele>
        <time>2020-06-02T14:28:59Z</time>
      </trkpt>
      <trkpt lat="45.86678" lon="5.67955">
        <ele>303</ele>
        <time>2020-06-02T14:29:27Z</time>
      </trkpt>
      <trkpt lat="45.86714" lon="5.67938">
        <ele>310</ele>
        <time>2020-06-02T14:30:18Z</time>
      </trkpt>
      <trkpt lat="45.86741" lon="5.67929">
        <ele>314</ele>
        <time>2020-06-02T14:30:55Z</time>
      </trkpt>
      <trkpt lat="45.86778" lon="5.67894">
        <ele>316</ele>
        <time>2020-06-02T14:31:54Z</time>
      </trkpt>
      <trkpt lat="45.868" lon="5.67877">
        <ele>315</ele>
        <time>2020-06-02T14:32:27Z</time>
      </trkpt>
      <trkpt lat="45.86835" lon="5.67811">
        <ele>311</ele>
        <time>2020-06-02T14:33:44Z</time>
      </trkpt>
      <trkpt lat="45.86883" lon="5.67794">
        <ele>308</ele>
        <time>2020-06-02T14:34:50Z</time>
      </trkpt>
      <trkpt lat="45.86948" lon="5.67745">
        <ele>305</ele>
        <time>2020-06-02T14:36:28Z</time>
      </trkpt>
      <trkpt lat="45.87026" lon="5.67709">
        <ele>305</ele>
        <time>2020-06-02T14:38:18Z</time>
      </trkpt>
      <trkpt lat="45.87114" lon="5.67787">
        <ele>301</ele>
        <time>2020-06-02T14:40:36Z</time>
      </trkpt>
      <trkpt lat="45.87195" lon="5.67811">
        <ele>297</ele>
        <time>2020-06-02T14:42:26Z</time>
      </trkpt>
      <trkpt lat="45.87219" lon="5.6783">
        <ele>296</ele>
        <time>2020-06-02T14:43:03Z</time>
      </trkpt>
      <trkpt lat="45.87237" lon="5.6785">
        <ele>294</ele>
        <time>2020-06-02T14:43:33Z</time>
      </trkpt>
      <trkpt lat="45.87244" lon="5.67864">
        <ele>292</ele>
        <time>2020-06-02T14:43:49Z</time>
      </trkpt>
      <trkpt lat="45.87252" lon="5.67819">
        <ele>294</ele>
        <time>2020-06-02T14:44:32Z</time>
      </trkpt>
      <trkpt lat="45.87253" lon="5.67801">
        <ele>294</ele>
        <time>2020-06-02T14:44:49Z</time>
      </trkpt>
      <trkpt lat="45.87229" lon="5.67565">
        <ele>296</ele>
        <time>2020-06-02T14:48:31Z</time>
      </trkpt>
      <trkpt lat="45.87222" lon="5.67472">
        <ele>297</ele>
        <time>2020-06-02T14:49:57Z</time>
      </trkpt>
      <trkpt lat="45.87231" lon="5.67392">
        <ele>296</ele>
        <time>2020-06-02T14:51:13Z</time>
      </trkpt>
      <trkpt lat="45.8724" lon="5.67162">
        <ele>294</ele>
        <time>2020-06-02T14:54:47Z</time>
      </trkpt>
      <trkpt lat="45.87229" lon="5.67035">
        <ele>295</ele>
        <time>2020-06-02T14:56:46Z</time>
      </trkpt>
      <trkpt lat="45.87253" lon="5.66925">
        <ele>294</ele>
        <time>2020-06-02T14:58:33Z</time>
      </trkpt>
      <trkpt lat="45.87308" lon="5.66945">
        <ele>295</ele>
        <time>2020-06-02T14:59:48Z</time>
      </trkpt>
      <trkpt lat="45.87339" lon="5.66929">
        <ele>296</ele>
        <time>2020-06-02T15:00:32Z</time>
      </trkpt>
      <trkpt lat="45.87419" lon="5.66903">
        <ele>302</ele>
        <time>2020-06-02T15:02:22Z</time>
      </trkpt>
      <trkpt lat="45.87434" lon="5.66902">
        <ele>302</ele>
        <time>2020-06-02T15:02:42Z</time>
      </trkpt>
      <trkpt lat="45.87541" lon="5.66953">
        <ele>308</ele>
        <time>2020-06-02T15:05:12Z</time>
      </trkpt>
      <trkpt lat="45.87608" lon="5.66965">
        <ele>311</ele>
        <time>2020-06-02T15:06:42Z</time>
      </trkpt>
      <trkpt lat="45.87722" lon="5.67028">
        <ele>312</ele>
        <time>2020-06-02T15:09:25Z</time>
      </trkpt>
      <trkpt lat="45.87743" lon="5.6699">
        <ele>314</ele>
        <time>2020-06-02T15:10:11Z</time>
      </trkpt>
      <trkpt lat="45.87756" lon="5.66945">
        <ele>315</ele>
        <time>2020-06-02T15:10:56Z</time>
      </trkpt>
      <trkpt lat="45.87738" lon="5.66808">
        <ele>328</ele>
        <time>2020-06-02T15:13:05Z</time>
      </trkpt>
      <trkpt lat="45.87642" lon="5.66639">
        <ele>349</ele>
        <time>2020-06-02T15:16:28Z</time>
      </trkpt>
      <trkpt lat="45.87609" lon="5.66555">
        <ele>357</ele>
        <time>2020-06-02T15:17:58Z</time>
      </trkpt>
      <trkpt lat="45.87602" lon="5.66456">
        <ele>368</ele>
        <time>2020-06-02T15:19:30Z</time>
      </trkpt>
      <trkpt lat="45.87603" lon="5.66438">
        <ele>370</ele>
        <time>2020-06-02T15:19:47Z</time>
      </trkpt>
      <trkpt lat="45.87546" lon="5.66383">
        <ele>374</ele>
        <time>2020-06-02T15:21:18Z</time>
      </trkpt>
      <trkpt lat="45.87517" lon="5.66337">
        <ele>378</ele>
        <time>2020-06-02T15:22:16Z</time>
      </trkpt>
      <trkpt lat="45.87471" lon="5.66284">
        <ele>381</ele>
        <time>2020-06-02T15:23:35Z</time>
      </trkpt>
      <trkpt lat="45.87381" lon="5.6626">
        <ele>371</ele>
        <time>2020-06-02T15:25:37Z</time>
      </trkpt>
      <trkpt lat="45.87316" lon="5.66163">
        <ele>375</ele>
        <time>2020-06-02T15:27:42Z</time>
      </trkpt>
      <trkpt lat="45.87303" lon="5.6614">
        <ele>378</ele>
        <time>2020-06-02T15:28:10Z</time>
      </trkpt>
      <trkpt lat="45.87281" lon="5.66125">
        <ele>378</ele>
        <time>2020-06-02T15:28:42Z</time>
      </trkpt>
      <trkpt lat="45.87213" lon="5.66052">
        <ele>380</ele>
        <time>2020-06-02T15:30:35Z</time>
      </trkpt>
      <trkpt lat="45.87196" lon="5.65975">
        <ele>388</ele>
        <time>2020-06-02T15:31:50Z</time>
      </trkpt>
      <trkpt lat="45.87026" lon="5.65795">
        <ele>398</ele>
        <time>2020-06-02T15:36:32Z</time>
      </trkpt>
      <trkpt lat="45.86985" lon="5.6576">
        <ele>399</ele>
        <time>2020-06-02T15:37:36Z</time>
      </trkpt>
      <trkpt lat="45.8696" lon="5.65732">
        <ele>398</ele>
        <time>2020-06-02T15:38:18Z</time>
      </trkpt>
      <trkpt lat="45.86926" lon="5.65657">
        <ele>404</ele>
        <time>2020-06-02T15:39:41Z</time>
      </trkpt>
      <trkpt lat="45.86911" lon="5.65605">
        <ele>403</ele>
        <time>2020-06-02T15:40:34Z</time>
      </trkpt>
      <trkpt lat="45.86918" lon="5.65572">
        <ele>410</ele>
        <time>2020-06-02T15:41:06Z</time>
      </trkpt>
      <trkpt lat="45.86932" lon="5.65568">
        <ele>415</ele>
        <time>2020-06-02T15:41:25Z</time>
      </trkpt>
      <trkpt lat="45.86949" lon="5.65574">
        <ele>419</ele>
        <time>2020-06-02T15:41:48Z</time>
      </trkpt>
      <trkpt lat="45.86955" lon="5.65585">
        <ele>419</ele>
        <time>2020-06-02T15:42:01Z</time>
      </trkpt>
      <trkpt lat="45.86968" lon="5.65599">
        <ele>422</ele>
        <time>2020-06-02T15:42:23Z</time>
      </trkpt>
      <trkpt lat="45.86983" lon="5.656">
        <ele>426</ele>
        <time>2020-06-02T15:42:43Z</time>
      </trkpt>
      <trkpt lat="45.8701" lon="5.65594">
        <ele>434</ele>
        <time>2020-06-02T15:43:19Z</time>
      </trkpt>
      <trkpt lat="45.87069" lon="5.6567">
        <ele>431</ele>
        <time>2020-06-02T15:45:05Z</time>
      </trkpt>
      <trkpt lat="45.87106" lon="5.6569">
        <ele>431</ele>
        <time>2020-06-02T15:45:58Z</time>
      </trkpt>
      <trkpt lat="45.87172" lon="5.65766">
        <ele>426</ele>
        <time>2020-06-02T15:47:51Z</time>
      </trkpt>
      <trkpt lat="45.87207" lon="5.65821">
        <ele>423</ele>
        <time>2020-06-02T15:49:00Z</time>
      </trkpt>
      <trkpt lat="45.87244" lon="5.65824">
        <ele>429</ele>
        <time>2020-06-02T15:49:49Z</time>
      </trkpt>
      <trkpt lat="45.87356" lon="5.65991">
        <ele>419</ele>
        <time>2020-06-02T15:53:25Z</time>
      </trkpt>
      <trkpt lat="45.87364" lon="5.66016">
        <ele>415</ele>
        <time>2020-06-02T15:53:50Z</time>
      </trkpt>
      <trkpt lat="45.8743" lon="5.66078">
        <ele>416</ele>
        <time>2020-06-02T15:55:36Z</time>
      </trkpt>
      <trkpt lat="45.87495" lon="5.66126">
        <ele>414</ele>
        <time>2020-06-02T15:57:13Z</time>
      </trkpt>
      <trkpt lat="45.87554" lon="5.66176">
        <ele>412</ele>
        <time>2020-06-02T15:58:45Z</time>
      </trkpt>
      <trkpt lat="45.87634" lon="5.66215">
        <ele>410</ele>
        <time>2020-06-02T16:00:37Z</time>
      </trkpt>
      <trkpt lat="45.87708" lon="5.66229">
        <ele>410</ele>
        <time>2020-06-02T16:02:17Z</time>
      </trkpt>
      <trkpt lat="45.87787" lon="5.66198">
        <ele>418</ele>
        <time>2020-06-02T16:04:06Z</time>
      </trkpt>
      <trkpt lat="45.87823" lon="5.66164">
        <ele>428</ele>
        <time>2020-06-02T16:05:04Z</time>
      </trkpt>
      <trkpt lat="45.87897" lon="5.66212">
        <ele>428</ele>
        <time>2020-06-02T16:06:52Z</time>
      </trkpt>
      <trkpt lat="45.87931" lon="5.66178">
        <ele>438</ele>
        <time>2020-06-02T16:07:47Z</time>
      </trkpt>
      <trkpt lat="45.87981" lon="5.66145">
        <ele>443</ele>
        <time>2020-06-02T16:09:01Z</time>
      </trkpt>
      <trkpt lat="45.87982" lon="5.66137">
        <ele>443</ele>
        <time>2020-06-02T16:09:08Z</time>
      </trkpt>
      <trkpt lat="45.8796" lon="5.66109">
        <ele>446</ele>
        <time>2020-06-02T16:09:48Z</time>
      </trkpt>
      <trkpt lat="45.87927" lon="5.66081">
        <ele>449</ele>
        <time>2020-06-02T16:10:39Z</time>
      </trkpt>
      <trkpt lat="45.87931" lon="5.66031">
        <ele>455</ele>
        <time>2020-06-02T16:11:25Z</time>
      </trkpt>
      <trkpt lat="45.87927" lon="5.66007">
        <ele>458</ele>
        <time>2020-06-02T16:11:48Z</time>
      </trkpt>
      <trkpt lat="45.87929" lon="5.65995">
        <ele>460</ele>
        <time>2020-06-02T16:12:00Z</time>
      </trkpt>
      <trkpt lat="45.87924" lon="5.65952">
        <ele>469</ele>
        <time>2020-06-02T16:12:40Z</time>
      </trkpt>
      <trkpt lat="45.87899" lon="5.65907">
        <ele>475</ele>
        <time>2020-06-02T16:13:34Z</time>
      </trkpt>
      <trkpt lat="45.87884" lon="5.65872">
        <ele>480</ele>
        <time>2020-06-02T16:14:12Z</time>
      </trkpt>
      <trkpt lat="45.87881" lon="5.65823">
        <ele>490</ele>
        <time>2020-06-02T16:14:58Z</time>
      </trkpt>
      <trkpt lat="45.87862" lon="5.65729">
        <ele>503</ele>
        <time>2020-06-02T16:16:29Z</time>
      </trkpt>
      <trkpt lat="45.87853" lon="5.6562">
        <ele>516</ele>
        <time>2020-06-02T16:18:11Z</time>
      </trkpt>
      <trkpt lat="45.87857" lon="5.65525">
        <ele>539</ele>
        <time>2020-06-02T16:19:39Z</time>
      </trkpt>
      <trkpt lat="45.87874" lon="5.65435">
        <ele>553</ele>
        <time>2020-06-02T16:21:06Z</time>
      </trkpt>
      <trkpt lat="45.87907" lon="5.65338">
        <ele>558</ele>
        <time>2020-06-02T16:22:46Z</time>
      </trkpt>
      <trkpt lat="45.87927" lon="5.65293">
        <ele>559</ele>
        <time>2020-06-02T16:23:36Z</time>
      </trkpt>
      <trkpt lat="45.87936" lon="5.65204">
        <ele>575</ele>
        <time>2020-06-02T16:24:59Z</time>
      </trkpt>
      <trkpt lat="45.87952" lon="5.65204">
        <ele>573</ele>
        <time>2020-06-02T16:25:20Z</time>
      </trkpt>
      <trkpt lat="45.87968" lon="5.65219">
        <ele>567</ele>
        <time>2020-06-02T16:25:46Z</time>
      </trkpt>
      <trkpt lat="45.88019" lon="5.65243">
        <ele>558</ele>
        <time>2020-06-02T16:26:58Z</time>
      </trkpt>
      <trkpt lat="45.88073" lon="5.65253">
        <ele>557</ele>
        <time>2020-06-02T16:28:10Z</time>
      </trkpt>
      <trkpt lat="45.88126" lon="5.65237">
        <ele>555</ele>
        <time>2020-06-02T16:29:23Z</time>
      </trkpt>
      <trkpt lat="45.88154" lon="5.65247">
        <ele>552</ele>
        <time>2020-06-02T16:30:01Z</time>
      </trkpt>
      <trkpt lat="45.88158" lon="5.65307">
        <ele>551</ele>
        <time>2020-06-02T16:30:57Z</time>
      </trkpt>
      <trkpt lat="45.88144" lon="5.65339">
        <ele>552</ele>
        <time>2020-06-02T16:31:32Z</time>
      </trkpt>
      <trkpt lat="45.88141" lon="5.6536">
        <ele>552</ele>
        <time>2020-06-02T16:31:52Z</time>
      </trkpt>
      <trkpt lat="45.88159" lon="5.65393">
        <ele>553</ele>
        <time>2020-06-02T16:32:31Z</time>
      </trkpt>
      <trkpt lat="45.88174" lon="5.65403">
        <ele>553</ele>
        <time>2020-06-02T16:32:53Z</time>
      </trkpt>
      <trkpt lat="45.88199" lon="5.65413">
        <ele>554</ele>
        <time>2020-06-02T16:33:28Z</time>
      </trkpt>
      <trkpt lat="45.88241" lon="5.65487">
        <ele>546</ele>
        <time>2020-06-02T16:34:56Z</time>
      </trkpt>
      <trkpt lat="45.88255" lon="5.65503">
        <ele>544</ele>
        <time>2020-06-02T16:35:20Z</time>
      </trkpt>
      <trkpt lat="45.88277" lon="5.65507">
        <ele>545</ele>
        <time>2020-06-02T16:35:50Z</time>
      </trkpt>
      <trkpt lat="45.88373" lon="5.65496">
        <ele>552</ele>
        <time>2020-06-02T16:37:58Z</time>
      </trkpt>
      <trkpt lat="45.88404" lon="5.65496">
        <ele>554</ele>
        <time>2020-06-02T16:38:40Z</time>
      </trkpt>
      <trkpt lat="45.88448" lon="5.65511">
        <ele>554</ele>
        <time>2020-06-02T16:39:40Z</time>
      </trkpt>
      <trkpt lat="45.88479" lon="5.65525">
        <ele>552</ele>
        <time>2020-06-02T16:40:23Z</time>
      </trkpt>
      <trkpt lat="45.88533" lon="5.65536">
        <ele>546</ele>
        <time>2020-06-02T16:41:36Z</time>
      </trkpt>
      <trkpt lat="45.88616" lon="5.65532">
        <ele>544</ele>
        <time>2020-06-02T16:43:27Z</time>
      </trkpt>
      <trkpt lat="45.88661" lon="5.65554">
        <ele>540</ele>
        <time>2020-06-02T16:44:30Z</time>
      </trkpt>
      <trkpt lat="45.88746" lon="5.65555">
        <ele>538</ele>
        <time>2020-06-02T16:46:24Z</time>
      </trkpt>
      <trkpt lat="45.88907" lon="5.65641">
        <ele>531</ele>
        <time>2020-06-02T16:50:13Z</time>
      </trkpt>
      <trkpt lat="45.88932" lon="5.65771">
        <ele>521</ele>
        <time>2020-06-02T16:52:18Z</time>
      </trkpt>
      <trkpt lat="45.88938" lon="5.65816">
        <ele>515</ele>
        <time>2020-06-02T16:53:01Z</time>
      </trkpt>
      <trkpt lat="45.88931" lon="5.65883">
        <ele>506</ele>
        <time>2020-06-02T16:54:04Z</time>
      </trkpt>
      <trkpt lat="45.88908" lon="5.65928">
        <ele>498</ele>
        <time>2020-06-02T16:54:56Z</time>
      </trkpt>
      <trkpt lat="45.88925" lon="5.65996">
        <ele>493</ele>
        <time>2020-06-02T16:56:03Z</time>
      </trkpt>
      <trkpt lat="45.88944" lon="5.66048">
        <ele>490</ele>
        <time>2020-06-02T16:56:57Z</time>
      </trkpt>
      <trkpt lat="45.88948" lon="5.66079">
        <ele>486</ele>
        <time>2020-06-02T16:57:27Z</time>
      </trkpt>
      <trkpt lat="45.88964" lon="5.66121">
        <ele>483</ele>
        <time>2020-06-02T16:58:11Z</time>
      </trkpt>
      <trkpt lat="45.88959" lon="5.6623">
        <ele>483</ele>
        <time>2020-06-02T16:59:53Z</time>
      </trkpt>
      <trkpt lat="45.89063" lon="5.66357">
        <ele>486</ele>
        <time>2020-06-02T17:02:55Z</time>
      </trkpt>
      <trkpt lat="45.89081" lon="5.66396">
        <ele>488</ele>
        <time>2020-06-02T17:03:38Z</time>
      </trkpt>
      <trkpt lat="45.89083" lon="5.66425">
        <ele>489</ele>
        <time>2020-06-02T17:04:05Z</time>
      </trkpt>
      <trkpt lat="45.89093" lon="5.66457">
        <ele>487</ele>
        <time>2020-06-02T17:04:38Z</time>
      </trkpt>
      <trkpt lat="45.89096" lon="5.66522">
        <ele>483</ele>
        <time>2020-06-02T17:05:38Z</time>
      </trkpt>
      <trkpt lat="45.8909" lon="5.66626">
        <ele>473</ele>
        <time>2020-06-02T17:07:15Z</time>
      </trkpt>
      <trkpt lat="45.89036" lon="5.66736">
        <ele>466</ele>
        <time>2020-06-02T17:09:20Z</time>
      </trkpt>
      <trkpt lat="45.88982" lon="5.66813">
        <ele>457</ele>
        <time>2020-06-02T17:11:02Z</time>
      </trkpt>
      <trkpt lat="45.88938" lon="5.66929">
        <ele>436</ele>
        <time>2020-06-02T17:13:05Z</time>
      </trkpt>
      <trkpt lat="45.89003" lon="5.66932">
        <ele>429</ele>
        <time>2020-06-02T17:14:31Z</time>
      </trkpt>
      <trkpt lat="45.89014" lon="5.67058">
        <ele>413</ele>
        <time>2020-06-02T17:16:29Z</time>
      </trkpt>
      <trkpt lat="45.89092" lon="5.67072">
        <ele>413</ele>
        <time>2020-06-02T17:18:14Z</time>
      </trkpt>
      <trkpt lat="45.89143" lon="5.67029">
        <ele>417</ele>
        <time>2020-06-02T17:19:33Z</time>
      </trkpt>
      <trkpt lat="45.89153" lon="5.67048">
        <ele>418</ele>
        <time>2020-06-02T17:19:55Z</time>
      </trkpt>
      <trkpt lat="45.89166" lon="5.67052">
        <ele>419</ele>
        <time>2020-06-02T17:20:13Z</time>
      </trkpt>
      <trkpt lat="45.89177" lon="5.67065">
        <ele>420</ele>
        <time>2020-06-02T17:20:32Z</time>
      </trkpt>
      <trkpt lat="45.89206" lon="5.67054">
        <ele>421</ele>
        <time>2020-06-02T17:21:12Z</time>
      </trkpt>
      <trkpt lat="45.89216" lon="5.67066">
        <ele>422</ele>
        <time>2020-06-02T17:21:29Z</time>
      </trkpt>
      <trkpt lat="45.89216" lon="5.67066">
        <ele>422</ele>
        <time>2020-06-02T12:42:38Z</time>
      </trkpt>
      <trkpt lat="45.89216" lon="5.67066">
        <ele>422</ele>
        <time>2020-06-02T12:42:38Z</time>
      </trkpt>
      <trkpt lat="45.89091" lon="5.67188">
        <ele>414</ele>
        <time>2020-06-02T12:46:00Z</time>
      </trkpt>
      <trkpt lat="45.88937" lon="5.67365">
        <ele>407</ele>
        <time>2020-06-02T12:50:23Z</time>
      </trkpt>
      <trkpt lat="45.88899" lon="5.67366">
        <ele>406</ele>
        <time>2020-06-02T12:51:14Z</time>
      </trkpt>
      <trkpt lat="45.88838" lon="5.67296">
        <ele>402</ele>
        <time>2020-06-02T12:52:58Z</time>
      </trkpt>
      <trkpt lat="45.88784" lon="5.6729">
        <ele>400</ele>
        <time>2020-06-02T12:54:10Z</time>
      </trkpt>
      <trkpt lat="45.88644" lon="5.67417">
        <ele>412</ele>
        <time>2020-06-02T12:57:51Z</time>
      </trkpt>
      <trkpt lat="45.88586" lon="5.67392">
        <ele>407</ele>
        <time>2020-06-02T12:59:12Z</time>
      </trkpt>
      <trkpt lat="45.88522" lon="5.67366">
        <ele>399</ele>
        <time>2020-06-02T13:00:41Z</time>
      </trkpt>
      <trkpt lat="45.88494" lon="5.67451">
        <ele>403</ele>
        <time>2020-06-02T13:02:08Z</time>
      </trkpt>
      <trkpt lat="45.88511" lon="5.67599">
        <ele>405</ele>
        <time>2020-06-02T13:04:27Z</time>
      </trkpt>
      <trkpt lat="45.88535" lon="5.67618">
        <ele>407</ele>
        <time>2020-06-02T13:05:04Z</time>
      </trkpt>
      <trkpt lat="45.88505" lon="5.67637">
        <ele>403</ele>
        <time>2020-06-02T13:05:48Z</time>
      </trkpt>
      <trkpt lat="45.88485" lon="5.67652">
        <ele>400</ele>
        <time>2020-06-02T13:06:18Z</time>
      </trkpt>
      <trkpt lat="45.88458" lon="5.67661">
        <ele>396</ele>
        <time>2020-06-02T13:06:55Z</time>
      </trkpt>
      <trkpt lat="45.88412" lon="5.67655">
        <ele>391</ele>
        <time>2020-06-02T13:07:56Z</time>
      </trkpt>
      <trkpt lat="45.88358" lon="5.67637">
        <ele>387</ele>
        <time>2020-06-02T13:09:10Z</time>
      </trkpt>
      <trkpt lat="45.88317" lon="5.67643">
        <ele>387</ele>
        <time>2020-06-02T13:10:05Z</time>
      </trkpt>
      <trkpt lat="45.88187" lon="5.67741">
        <ele>389</ele>
        <time>2020-06-02T13:13:21Z</time>
      </trkpt>
      <trkpt lat="45.88125" lon="5.67811">
        <ele>393</ele>
        <time>2020-06-02T13:15:06Z</time>
      </trkpt>
      <trkpt lat="45.88018" lon="5.67878">
        <ele>376</ele>
        <time>2020-06-02T13:17:42Z</time>
      </trkpt>
      <trkpt lat="45.87979" lon="5.67938">
        <ele>366</ele>
        <time>2020-06-02T13:18:58Z</time>
      </trkpt>
      <trkpt lat="45.87951" lon="5.67957">
        <ele>357</ele>
        <time>2020-06-02T13:19:40Z</time>
      </trkpt>
      <trkpt lat="45.87934" lon="5.67978">
        <ele>354</ele>
        <time>2020-06-02T13:20:10Z</time>
      </trkpt>
      <trkpt lat="45.8793" lon="5.67989">
        <ele>354</ele>
        <time>2020-06-02T13:20:21Z</time>
      </trkpt>
      <trkpt lat="45.87923" lon="5.68037">
        <ele>360</ele>
        <time>2020-06-02T13:21:07Z</time>
      </trkpt>
      <trkpt lat="45.87914" lon="5.6813">
        <ele>364</ele>
        <time>2020-06-02T13:22:34Z</time>
      </trkpt>
      <trkpt lat="45.87911" lon="5.6817">
        <ele>362</ele>
        <time>2020-06-02T13:23:11Z</time>
      </trkpt>
      <trkpt lat="45.87932" lon="5.6831">
        <ele>368</ele>
        <time>2020-06-02T13:25:24Z</time>
      </trkpt>
      <trkpt lat="45.87933" lon="5.6833">
        <ele>368</ele>
        <time>2020-06-02T13:25:43Z</time>
      </trkpt>
      <trkpt lat="45.87928" lon="5.68366">
        <ele>366</ele>
        <time>2020-06-02T13:26:17Z</time>
      </trkpt>
      <trkpt lat="45.8792" lon="5.68392">
        <ele>364</ele>
        <time>2020-06-02T13:26:44Z</time>
      </trkpt>
      <trkpt lat="45.87918" lon="5.68422">
        <ele>363</ele>
        <time>2020-06-02T13:27:12Z</time>
      </trkpt>
      <trkpt lat="45.87925" lon="5.6846">
        <ele>362</ele>
        <time>2020-06-02T13:27:48Z</time>
      </trkpt>
      <trkpt lat="45.87946" lon="5.68513">
        <ele>362</ele>
        <time>2020-06-02T13:28:45Z</time>
      </trkpt>
      <trkpt lat="45.87968" lon="5.68548">
        <ele>364</ele>
        <time>2020-06-02T13:29:29Z</time>
      </trkpt>
      <trkpt lat="45.88044" lon="5.68642">
        <ele>363</ele>
        <time>2020-06-02T13:31:42Z</time>
      </trkpt>
      <trkpt lat="45.88064" lon="5.68681">
        <ele>361</ele>
        <time>2020-06-02T13:32:27Z</time>
      </trkpt>
      <trkpt lat="45.88064" lon="5.68686">
        <ele>361</ele>
        <time>2020-06-02T13:32:32Z</time>
      </trkpt>
      <trkpt lat="45.88044" lon="5.68702">
        <ele>358</ele>
        <time>2020-06-02T13:33:03Z</time>
      </trkpt>
      <trkpt lat="45.88016" lon="5.68719">
        <ele>354</ele>
        <time>2020-06-02T13:33:43Z</time>
      </trkpt>
      <trkpt lat="45.87994" lon="5.68741">
        <ele>349</ele>
        <time>2020-06-02T13:34:19Z</time>
      </trkpt>
      <trkpt lat="45.87972" lon="5.68775">
        <ele>341</ele>
        <time>2020-06-02T13:35:02Z</time>
      </trkpt>
      <trkpt lat="45.87931" lon="5.6878">
        <ele>335</ele>
        <time>2020-06-02T13:35:57Z</time>
      </trkpt>
      <trkpt lat="45.87886" lon="5.68772">
        <ele>330</ele>
        <time>2020-06-02T13:36:57Z</time>
      </trkpt>
      <trkpt lat="45.87866" lon="5.68762">
        <ele>328</ele>
        <time>2020-06-02T13:37:26Z</time>
      </trkpt>
      <trkpt lat="45.87836" lon="5.68739">
        <ele>326</ele>
        <time>2020-06-02T13:38:11Z</time>
      </trkpt>
      <trkpt lat="45.8782" lon="5.68728">
        <ele>321</ele>
        <time>2020-06-02T13:38:35Z</time>
      </trkpt>
      <trkpt lat="45.87805" lon="5.68701">
        <ele>318</ele>
        <time>2020-06-02T13:39:07Z</time>
      </trkpt>
      <trkpt lat="45.87797" lon="5.68689">
        <ele>315</ele>
        <time>2020-06-02T13:39:22Z</time>
      </trkpt>
      <trkpt lat="45.87787" lon="5.68649">
        <ele>313</ele>
        <time>2020-06-02T13:40:02Z</time>
      </trkpt>
      <trkpt lat="45.87775" lon="5.68572">
        <ele>308</ele>
        <time>2020-06-02T13:41:15Z</time>
      </trkpt>
      <trkpt lat="45.8776" lon="5.68533">
        <ele>301</ele>
        <time>2020-06-02T13:41:56Z</time>
      </trkpt>
      <trkpt lat="45.87754" lon="5.68455">
        <ele>297</ele>
        <time>2020-06-02T13:43:09Z</time>
      </trkpt>
      <trkpt lat="45.87755" lon="5.68358">
        <ele>295</ele>
        <time>2020-06-02T13:44:39Z</time>
      </trkpt>
      <trkpt lat="45.87745" lon="5.68333">
        <ele>289</ele>
        <time>2020-06-02T13:45:06Z</time>
      </trkpt>
      <trkpt lat="45.87709" lon="5.68344">
        <ele>277</ele>
        <time>2020-06-02T13:45:55Z</time>
      </trkpt>
      <trkpt lat="45.87706" lon="5.68341">
        <ele>276</ele>
        <time>2020-06-02T13:46:00Z</time>
      </trkpt>
      <trkpt lat="45.87691" lon="5.68339">
        <ele>271</ele>
        <time>2020-06-02T13:46:20Z</time>
      </trkpt>
      <trkpt lat="45.87663" lon="5.68358">
        <ele>262</ele>
        <time>2020-06-02T13:47:02Z</time>
      </trkpt>
      <trkpt lat="45.87629" lon="5.68412">
        <ele>258</ele>
        <time>2020-06-02T13:48:09Z</time>
      </trkpt>
      <trkpt lat="45.87607" lon="5.68423">
        <ele>254</ele>
        <time>2020-06-02T13:48:40Z</time>
      </trkpt>
      <trkpt lat="45.87549" lon="5.68403">
        <ele>249</ele>
        <time>2020-06-02T13:50:00Z</time>
      </trkpt>
      <trkpt lat="45.87536" lon="5.68402">
        <ele>248</ele>
        <time>2020-06-02T13:50:17Z</time>
      </trkpt>
      <trkpt lat="45.87526" lon="5.68437">
        <ele>248</ele>
        <time>2020-06-02T13:50:53Z</time>
      </trkpt>
      <trkpt lat="45.87515" lon="5.68436">
        <ele>247</ele>
        <time>2020-06-02T13:51:07Z</time>
      </trkpt>
      <trkpt lat="45.87501" lon="5.68451">
        <ele>246</ele>
        <time>2020-06-02T13:51:31Z</time>
      </trkpt>
    </trkseg>
  </trk>
</gpx>